Time;durP1;ratioP1;P1;durP2;ratioP2;P2;SDS_P1;SDS_P2;PMS_P1;PMS_P2;Temp;Humidity;BMP_temperature;BMP_pressure;BME280_temperature;BME280_humidity;BME280_pressure;Samples;Min_cycle;Max_cycle;Signal;HPM_P1;HPM_P2
2021/06/15 00:01:21;;;;;;;17.67;10.38;;;20.90;54.40;;;;;;4961323;28;20482;-75
2021/06/15 00:03:47;;;;;;;21.10;11.98;;;20.90;53.90;;;;;;4961198;28;20093;-75
2021/06/15 00:06:13;;;;;;;16.90;10.70;;;20.80;55.10;;;;;;4960375;28;20032;-74
2021/06/15 00:08:38;;;;;;;19.60;11.82;;;20.80;54.50;;;;;;4948688;29;20106;-74
2021/06/15 00:11:04;;;;;;;18.55;11.98;;;20.80;54.20;;;;;;4961032;28;20035;-75
2021/06/15 00:13:30;;;;;;;19.98;12.20;;;20.70;54.40;;;;;;4961011;28;20023;-75
2021/06/15 00:15:57;;;;;;;18.48;11.55;;;20.70;56.10;;;;;;4961035;29;20035;-75
2021/06/15 00:18:23;;;;;;;22.00;12.10;;;20.70;54.30;;;;;;4961112;28;20080;-76
2021/06/15 00:20:50;;;;;;;23.65;12.25;;;20.70;55.20;;;;;;4960983;28;20063;-76
2021/06/15 00:23:16;;;;;;;23.95;14.05;;;20.70;53.50;;;;;;4961030;28;20023;-75
2021/06/15 00:25:42;;;;;;;26.45;13.05;;;20.60;55.30;;;;;;4960835;29;20033;-76
2021/06/15 00:28:08;;;;;;;22.33;13.88;;;20.70;54.70;;;;;;4960697;28;20118;-76
2021/06/15 00:30:34;;;;;;;23.13;13.60;;;20.70;55.20;;;;;;4960626;28;20038;-76
2021/06/15 00:32:59;;;;;;;23.27;13.02;;;20.70;57.60;;;;;;4948390;29;20031;-76
2021/06/15 00:35:25;;;;;;;26.52;14.68;;;20.70;56.90;;;;;;4960635;28;20028;-76
2021/06/15 00:37:51;;;;;;;21.95;14.35;;;20.70;55.50;;;;;;4960734;28;20394;-75
2021/06/15 00:40:19;;;;;;;24.48;13.82;;;20.70;55.30;;;;;;4960528;28;20039;-76
2021/06/15 00:42:45;;;;;;;25.88;14.68;;;20.70;55.50;;;;;;4961045;28;20529;-76
2021/06/15 00:45:14;;;;;;;24.00;15.73;;;20.70;56.00;;;;;;4960307;28;20035;-75
2021/06/15 00:47:44;;;;;;;23.52;16.27;;;20.70;56.20;;;;;;4952531;28;20099;-75
2021/06/15 00:50:11;;;;;;;25.63;15.18;;;20.80;57.60;;;;;;4956356;29;20105;-75
2021/06/15 00:52:37;;;;;;;28.15;15.65;;;20.70;57.90;;;;;;4960459;28;20027;-76
2021/06/15 00:55:04;;;;;;;25.33;14.45;;;20.70;56.30;;;;;;4956283;29;20033;-76
2021/06/15 00:57:30;;;;;;;24.58;15.95;;;20.80;57.80;;;;;;4948818;29;20556;-76
2021/06/15 00:59:57;;;;;;;27.48;16.27;;;20.70;59.00;;;;;;4956663;29;20027;-76
2021/06/15 01:02:24;;;;;;;27.17;17.13;;;20.70;60.30;;;;;;4960527;28;20035;-76
2021/06/15 01:04:50;;;;;;;24.90;16.33;;;20.70;59.10;;;;;;4960108;28;20024;-75
2021/06/15 01:07:29;;;;;;;24.17;14.35;;;20.70;58.20;;;;;;4951762;28;20391;-75
2021/06/15 01:10:06;;;;;;;26.30;16.15;;;20.80;59.00;;;;;;4957244;29;20110;-75
2021/06/15 01:12:38;;;;;;;28.63;16.90;;;20.80;58.20;;;;;;4960245;28;20023;-75
2021/06/15 01:15:17;;;;;;;26.77;16.40;;;20.80;61.00;;;;;;4947183;29;20372;-76
2021/06/15 01:17:54;;;;;;;27.27;16.38;;;20.70;60.70;;;;;;4959754;28;20027;-75
2021/06/15 01:20:26;;;;;;;23.83;15.45;;;20.70;60.10;;;;;;4960255;28;20021;-76
2021/06/15 01:23:10;;;;;;;23.90;14.87;;;20.70;60.00;;;;;;4959732;29;20027;-75
2021/06/15 01:26:04;;;;;;;25.52;15.07;;;20.70;61.10;;;;;;4959722;28;20754;-76
2021/06/15 01:28:39;;;;;;;24.77;14.73;;;20.60;61.60;;;;;;4959781;28;20082;-76
2021/06/15 01:31:13;;;;;;;26.42;14.98;;;20.60;61.00;;;;;;4959554;29;20470;-76
2021/06/15 01:33:48;;;;;;;24.50;15.15;;;20.60;59.80;;;;;;4959405;28;20019;-76
2021/06/15 01:36:16;;;;;;;20.23;12.43;;;20.70;58.80;;;;;;4958405;29;20028;-76
2021/06/15 01:38:52;;;;;;;25.08;14.95;;;20.70;60.30;;;;;;4959925;28;20047;-76
2021/06/15 01:41:31;;;;;;;24.20;15.60;;;20.70;58.30;;;;;;4959450;28;20129;-76
2021/06/15 01:44:02;;;;;;;22.38;14.32;;;20.70;59.00;;;;;;4959289;28;20504;-76
2021/06/15 01:46:34;;;;;;;24.65;16.38;;;20.70;59.00;;;;;;4958500;29;20100;-76
2021/06/15 01:49:05;;;;;;;23.58;16.02;;;20.70;60.50;;;;;;4947333;29;20390;-76
2021/06/15 01:51:32;;;;;;;29.02;16.27;;;20.70;60.20;;;;;;4959396;28;20058;-76
2021/06/15 01:54:10;;;;;;;24.98;15.82;;;20.60;60.20;;;;;;4959407;28;20030;-76
2021/06/15 01:56:42;;;;;;;26.77;15.70;;;20.70;60.20;;;;;;4959438;28;20031;-76
2021/06/15 01:59:13;;;;;;;24.60;15.37;;;20.60;60.00;;;;;;4955188;28;20019;-75
2021/06/15 02:01:45;;;;;;;24.08;14.98;;;20.70;60.10;;;;;;4953413;29;20043;-76
2021/06/15 02:04:13;;;;;;;25.27;15.70;;;20.70;61.70;;;;;;4950802;29;20042;-76
2021/06/15 02:06:43;;;;;;;26.92;16.00;;;20.60;59.90;;;;;;4955670;28;20103;-76
2021/06/15 02:09:11;;;;;;;23.85;15.65;;;20.60;60.90;;;;;;4950388;29;20066;-76
2021/06/15 02:11:38;;;;;;;20.35;14.00;;;20.60;62.50;;;;;;4954720;28;20087;-76
2021/06/15 02:14:05;;;;;;;25.10;13.68;;;20.60;60.20;;;;;;4950880;29;20027;-76
2021/06/15 02:16:32;;;;;;;24.40;14.55;;;20.60;60.70;;;;;;4959110;28;20019;-76
2021/06/15 02:19:00;;;;;;;21.85;13.68;;;20.60;60.60;;;;;;4957925;29;20078;-76
2021/06/15 02:21:31;;;;;;;21.17;13.77;;;20.60;59.70;;;;;;4958933;28;20070;-76
2021/06/15 02:24:00;;;;;;;20.88;14.10;;;20.60;58.30;;;;;;4959136;28;20438;-76
2021/06/15 02:26:29;;;;;;;21.40;13.20;;;20.60;58.30;;;;;;4946424;29;20067;-76
2021/06/15 02:28:55;;;;;;;20.92;12.80;;;20.60;57.80;;;;;;4961369;28;20541;-76
2021/06/15 02:31:30;;;;;;;22.20;14.65;;;20.60;59.10;;;;;;4963218;28;20031;-76
2021/06/15 02:34:03;;;;;;;24.27;15.30;;;20.60;58.20;;;;;;4962665;28;20074;-76
2021/06/15 02:36:34;;;;;;;19.85;13.23;;;20.60;60.00;;;;;;4963034;28;20026;-76
2021/06/15 02:39:22;;;;;;;25.35;14.50;;;20.60;60.10;;;;;;4950034;28;20038;-76
2021/06/15 02:41:51;;;;;;;21.05;14.38;;;20.60;59.10;;;;;;4962542;28;20063;-76
2021/06/15 02:44:21;;;;;;;21.67;12.57;;;20.60;59.90;;;;;;4962854;28;20059;-75
2021/06/15 02:46:54;;;;;;;20.73;13.23;;;20.60;60.60;;;;;;4962811;28;20035;-76
2021/06/15 02:49:23;;;;;;;20.20;12.27;;;20.60;58.70;;;;;;4952714;29;20095;-76
2021/06/15 02:52:05;;;;;;;22.80;13.18;;;20.60;57.80;;;;;;4959172;29;20031;-76
2021/06/15 02:54:36;;;;;;;19.80;12.07;;;20.60;57.90;;;;;;4962732;28;20031;-75
2021/06/15 02:57:03;;;;;;;21.52;13.07;;;20.60;58.80;;;;;;4949577;28;20019;-76
2021/06/15 02:59:29;;;;;;;21.73;13.98;;;20.60;59.30;;;;;;4957559;28;20031;-76
2021/06/15 03:01:55;;;;;;;24.45;15.68;;;20.60;61.20;;;;;;4948364;29;20031;-76
2021/06/15 03:04:21;;;;;;;25.92;14.98;;;20.60;63.70;;;;;;4962344;28;20035;-76
2021/06/15 03:06:47;;;;;;;21.50;13.20;;;20.50;61.00;;;;;;4957827;28;20031;-76
2021/06/15 03:09:14;;;;;;;21.30;13.38;;;20.50;60.60;;;;;;4954421;29;20031;-76
2021/06/15 03:11:51;;;;;;;26.20;13.55;;;20.50;59.20;;;;;;4962096;28;20027;-75
2021/06/15 03:14:26;;;;;;;24.38;14.48;;;20.50;59.10;;;;;;4962011;28;20031;-76
2021/06/15 03:16:56;;;;;;;23.77;14.07;;;20.50;59.30;;;;;;4962310;28;20509;-76
2021/06/15 03:20:15;;;;;;;22.15;14.25;;;20.60;60.40;;;;;;4962351;28;20036;-75
2021/06/15 03:22:53;;;;;;;24.67;16.08;;;20.60;60.60;;;;;;4929850;28;20032;-75
2021/06/15 03:25:24;;;;;;;20.77;14.05;;;20.60;60.30;;;;;;4951071;28;20426;-75
2021/06/15 03:28:01;;;;;;;22.83;14.27;;;20.50;59.60;;;;;;4960788;29;20023;-75
2021/06/15 03:30:29;;;;;;;25.15;15.48;;;20.50;60.30;;;;;;4961766;28;20034;-75
2021/06/15 03:32:59;;;;;;;22.42;14.35;;;20.50;61.10;;;;;;4961839;28;20491;-75
2021/06/15 03:35:27;;;;;;;23.77;13.70;;;20.50;60.70;;;;;;4961007;29;20398;-75
2021/06/15 03:38:04;;;;;;;24.45;14.73;;;20.50;63.40;;;;;;4961729;28;20560;-76
2021/06/15 03:40:33;;;;;;;24.75;14.77;;;20.40;62.50;;;;;;4961431;28;20051;-76
2021/06/15 03:43:00;;;;;;;19.67;12.23;;;20.40;60.90;;;;;;4960276;29;20490;-75
2021/06/15 03:45:33;;;;;;;21.90;13.65;;;20.40;60.10;;;;;;4961509;28;20118;-75
2021/06/15 03:48:01;;;;;;;24.83;14.75;;;20.40;61.10;;;;;;4961525;28;20027;-72
2021/06/15 03:50:27;;;;;;;20.17;12.40;;;20.40;63.80;;;;;;4961536;28;20027;-72
2021/06/15 03:52:56;;;;;;;21.60;13.05;;;20.40;61.00;;;;;;4961669;28;20066;-73
2021/06/15 03:55:28;;;;;;;21.33;12.25;;;20.40;60.30;;;;;;4961295;28;20023;-73
2021/06/15 03:57:55;;;;;;;20.40;12.98;;;20.40;59.80;;;;;;4956424;28;20024;-74
2021/06/15 04:00:24;;;;;;;19.23;12.55;;;20.40;60.20;;;;;;4949080;29;20034;-73
2021/06/15 04:02:53;;;;;;;21.27;12.65;;;20.40;60.30;;;;;;4960476;28;20063;-76
2021/06/15 04:05:26;;;;;;;18.80;12.48;;;20.40;59.60;;;;;;4959001;29;20031;-75
2021/06/15 04:07:58;;;;;;;21.85;14.10;;;20.40;60.00;;;;;;4948430;28;20387;-76
2021/06/15 04:10:25;;;;;;;22.27;14.02;;;20.30;60.00;;;;;;4953578;28;20036;-75
2021/06/15 04:12:53;;;;;;;23.42;12.93;;;20.30;60.10;;;;;;4955869;29;20035;-75
2021/06/15 04:15:19;;;;;;;19.00;13.50;;;20.30;59.70;;;;;;4961274;28;20553;-75
2021/06/15 04:17:49;;;;;;;21.70;13.52;;;20.30;59.80;;;;;;4960969;28;20026;-75
2021/06/15 04:20:20;;;;;;;20.35;12.07;;;20.30;59.50;;;;;;4961216;28;20027;-75
2021/06/15 04:22:48;;;;;;;20.35;11.63;;;20.30;58.90;;;;;;4957308;28;20487;-75
2021/06/15 04:25:20;;;;;;;21.92;13.55;;;20.30;59.20;;;;;;4952327;29;20024;-75
2021/06/15 04:27:46;;;;;;;20.55;12.75;;;20.30;61.50;;;;;;4960838;28;20490;-75
2021/06/15 04:30:15;;;;;;;23.75;13.10;;;20.30;59.20;;;;;;4960839;28;20042;-75
2021/06/15 04:33:03;;;;;;;19.88;12.98;;;20.30;59.00;;;;;;4960640;28;20027;-75
2021/06/15 04:35:43;;;;;;;21.05;13.05;;;20.30;59.20;;;;;;4956511;29;20031;-75
2021/06/15 04:38:22;;;;;;;21.42;12.40;;;20.30;59.70;;;;;;4960523;28;20440;-75
2021/06/15 04:40:50;;;;;;;20.30;13.13;;;20.30;59.00;;;;;;4960282;28;20050;-75
2021/06/15 04:43:41;;;;;;;21.15;12.02;;;20.30;60.30;;;;;;4948230;28;20012;-75
2021/06/15 04:46:17;;;;;;;24.00;14.25;;;20.30;60.10;;;;;;4950827;29;20116;-75
2021/06/15 04:48:45;;;;;;;24.40;14.15;;;20.30;59.90;;;;;;4960452;28;20047;-75
2021/06/15 04:51:11;;;;;;;22.23;13.57;;;20.30;61.50;;;;;;4960128;28;20090;-75
2021/06/15 04:53:41;;;;;;;20.80;13.00;;;20.40;60.60;;;;;;4960411;28;20027;-75
2021/06/15 04:56:09;;;;;;;21.17;13.35;;;20.30;60.30;;;;;;4947597;29;20027;-75
2021/06/15 04:58:35;;;;;;;21.23;12.80;;;20.30;60.30;;;;;;4954990;29;20030;-75
2021/06/15 05:01:02;;;;;;;25.08;13.43;;;20.30;60.40;;;;;;4960405;28;20023;-74
2021/06/15 05:03:30;;;;;;;25.55;14.82;;;20.30;61.80;;;;;;4958864;29;20028;-74
2021/06/15 05:06:03;;;;;;;20.70;13.50;;;20.30;61.70;;;;;;4960129;28;20028;-74
2021/06/15 05:08:33;;;;;;;22.92;14.18;;;20.30;61.60;;;;;;4946422;28;20038;-75
2021/06/15 05:11:01;;;;;;;26.70;13.88;;;20.30;61.90;;;;;;4960077;28;20031;-74
2021/06/15 05:13:29;;;;;;;24.23;13.75;;;20.30;61.80;;;;;;4946345;29;20012;-74
2021/06/15 05:15:57;;;;;;;25.52;16.13;;;20.30;60.60;;;;;;4959905;28;20070;-74
2021/06/15 05:18:24;;;;;;;21.15;13.35;;;20.30;62.30;;;;;;4960104;28;20373;-75
2021/06/15 05:20:50;;;;;;;24.30;14.05;;;20.30;61.40;;;;;;4959636;28;20027;-75
2021/06/15 05:23:26;;;;;;;23.55;13.50;;;20.30;60.20;;;;;;4959932;28;20029;-75
2021/06/15 05:25:52;;;;;;;25.38;14.70;;;20.30;60.40;;;;;;4959631;28;20019;-76
2021/06/15 05:28:18;;;;;;;23.25;14.55;;;20.30;60.80;;;;;;4959630;28;20020;-75
2021/06/15 05:30:44;;;;;;;25.38;13.93;;;20.30;60.30;;;;;;4958433;29;20031;-75
2021/06/15 05:33:11;;;;;;;20.65;13.05;;;20.30;62.00;;;;;;4959485;28;20023;-73
2021/06/15 05:35:38;;;;;;;21.58;13.15;;;20.30;61.50;;;;;;4959727;28;20023;-73
2021/06/15 05:38:04;;;;;;;27.17;15.68;;;20.30;61.20;;;;;;4959749;28;20011;-72
2021/06/15 05:40:30;;;;;;;23.33;14.85;;;20.40;61.30;;;;;;4959248;29;20051;-69
2021/06/15 05:42:56;;;;;;;19.20;12.30;;;20.40;61.70;;;;;;4959482;28;20082;-70
2021/06/15 05:45:22;;;;;;;21.27;13.30;;;20.40;61.70;;;;;;4959501;28;20038;-72
2021/06/15 05:47:48;;;;;;;22.58;14.68;;;20.40;61.40;;;;;;4959792;28;20024;-71
2021/06/15 05:50:16;;;;;;;26.42;14.82;;;20.40;63.30;;;;;;4959441;28;20026;-72
2021/06/15 05:52:43;;;;;;;26.67;15.13;;;20.40;62.90;;;;;;4959434;28;20031;-76
2021/06/15 05:55:11;;;;;;;24.90;14.27;;;20.40;63.00;;;;;;4959262;28;20034;-75
2021/06/15 05:57:38;;;;;;;22.98;14.15;;;20.40;62.40;;;;;;4956580;28;20031;-78
2021/06/15 06:00:06;;;;;;;28.05;14.82;;;20.40;63.80;;;;;;4956702;29;20525;-76
2021/06/15 06:02:32;;;;;;;24.25;13.70;;;20.40;61.80;;;;;;4956686;28;20047;-76
2021/06/15 06:10:10;;;;;;;22.13;13.75;;;20.40;63.50;;;;;;4950136;29;20114;-76
2021/06/15 06:12:36;;;;;;;20.45;13.48;;;20.50;62.30;;;;;;4948022;29;20028;-76
2021/06/15 06:15:04;;;;;;;17.73;11.73;;;20.50;63.60;;;;;;4949157;29;20026;-76
2021/06/15 06:17:29;;;;;;;19.92;12.73;;;20.50;63.80;;;;;;4944145;28;21104;-76
2021/06/15 06:19:56;;;;;;;30.23;14.50;;;20.50;62.30;;;;;;4952707;29;20074;-76
2021/06/15 06:22:22;;;;;;;20.20;13.05;;;20.50;62.30;;;;;;4956542;29;20046;-75
2021/06/15 06:24:49;;;;;;;20.52;13.35;;;20.50;61.60;;;;;;4959230;28;20027;-75
2021/06/15 06:27:15;;;;;;;19.95;12.02;;;20.50;61.80;;;;;;4953070;28;20114;-75
2021/06/15 06:29:41;;;;;;;18.02;11.75;;;20.60;61.70;;;;;;4949830;28;20106;-75
2021/06/15 06:32:07;;;;;;;18.55;11.95;;;20.70;61.20;;;;;;4952708;29;20066;-75
2021/06/15 06:34:32;;;;;;;18.45;12.68;;;20.80;61.80;;;;;;4958761;28;20031;-75
2021/06/15 06:36:59;;;;;;;20.17;13.07;;;20.80;62.10;;;;;;4958838;28;20051;-75
2021/06/15 06:39:24;;;;;;;22.17;13.63;;;20.90;61.60;;;;;;4959018;28;20019;-75
2021/06/15 06:41:51;;;;;;;21.80;14.32;;;20.90;61.90;;;;;;4958606;28;20055;-75
2021/06/15 06:44:17;;;;;;;25.65;13.57;;;20.90;61.30;;;;;;4958843;29;20031;-75
2021/06/15 06:46:43;;;;;;;22.83;12.80;;;20.90;63.10;;;;;;4958800;28;20031;-75
2021/06/15 06:49:09;;;;;;;22.40;12.77;;;21.00;62.10;;;;;;4958953;29;20118;-75
2021/06/15 06:51:35;;;;;;;21.17;12.98;;;21.00;61.90;;;;;;4958725;28;20063;-75
2021/06/15 06:54:01;;;;;;;22.50;12.90;;;21.10;62.30;;;;;;4958956;28;20027;-75
2021/06/15 06:56:28;;;;;;;21.52;14.18;;;21.10;62.50;;;;;;4958697;28;20136;-75
2021/06/15 06:58:54;;;;;;;25.15;14.40;;;21.10;64.60;;;;;;4953888;28;20020;-75
2021/06/15 07:01:21;;;;;;;22.48;13.85;;;21.10;63.20;;;;;;4958696;28;20055;-75
2021/06/15 07:03:48;;;;;;;18.83;12.48;;;21.10;62.70;;;;;;4958910;28;20107;-75
2021/06/15 07:06:15;;;;;;;20.58;14.00;;;21.20;63.20;;;;;;4958377;28;20082;-75
2021/06/15 07:08:40;;;;;;;20.67;12.43;;;21.20;63.20;;;;;;4946175;29;20035;-76
2021/06/15 07:11:06;;;;;;;20.42;12.90;;;21.40;62.20;;;;;;4957306;29;20028;-75
2021/06/15 07:13:32;;;;;;;20.88;13.88;;;21.50;61.90;;;;;;4958769;28;20024;-75
2021/06/15 07:15:58;;;;;;;18.30;12.73;;;21.60;62.50;;;;;;4962117;28;20098;-75
2021/06/15 07:18:24;;;;;;;18.77;12.68;;;21.70;62.50;;;;;;4962293;29;20111;-75
2021/06/15 07:20:50;;;;;;;17.67;12.13;;;21.70;61.70;;;;;;4961842;29;20098;-75
2021/06/15 07:23:16;;;;;;;17.92;12.57;;;21.70;61.50;;;;;;4967967;28;20027;-75
2021/06/15 07:25:41;;;;;;;19.85;13.15;;;21.80;61.80;;;;;;4960413;28;20027;-75
2021/06/15 07:28:07;;;;;;;17.25;11.93;;;21.80;62.00;;;;;;4961687;28;20027;-75
2021/06/15 07:30:33;;;;;;;20.45;13.30;;;21.80;61.80;;;;;;4962010;28;20027;-71
2021/06/15 07:32:59;;;;;;;18.98;12.45;;;21.90;61.20;;;;;;4955366;28;20035;-76
2021/06/15 07:35:26;;;;;;;19.45;12.75;;;22.00;62.30;;;;;;4961741;28;20038;-75
2021/06/15 07:37:52;;;;;;;22.55;13.55;;;22.00;61.60;;;;;;4961618;28;20023;-76
2021/06/15 07:40:22;;;;;;;18.40;12.45;;;22.10;62.30;;;;;;4961279;28;20047;-76
2021/06/15 07:42:50;;;;;;;17.30;11.80;;;22.30;62.20;;;;;;4961384;28;20090;-76
2021/06/15 07:45:16;;;;;;;16.33;12.07;;;22.40;61.70;;;;;;4961638;28;20031;-76
2021/06/15 07:47:42;;;;;;;17.50;12.57;;;22.50;62.20;;;;;;4961667;28;20034;-77
2021/06/15 07:50:08;;;;;;;21.88;12.18;;;22.50;61.40;;;;;;4956339;28;20023;-74
2021/06/15 07:52:34;;;;;;;19.58;11.98;;;22.50;62.10;;;;;;4951709;29;20110;-76
2021/06/15 07:55:01;;;;;;;19.73;11.75;;;22.60;61.10;;;;;;4961452;28;20035;-75
2021/06/15 07:57:27;;;;;;;17.25;11.85;;;22.60;62.30;;;;;;4960459;28;20394;-74
2021/06/15 07:59:52;;;;;;;19.05;11.68;;;22.60;61.30;;;;;;4957679;29;20019;-76
2021/06/15 08:02:18;;;;;;;17.15;12.05;;;22.70;61.10;;;;;;4961699;28;20219;-73
2021/06/15 08:04:44;;;;;;;16.83;11.50;;;22.70;61.10;;;;;;4961219;28;20046;-74
2021/06/15 08:07:10;;;;;;;19.45;12.13;;;22.70;60.80;;;;;;4953685;28;20028;-75
2021/06/15 08:09:36;;;;;;;16.55;11.20;;;22.80;61.00;;;;;;4970829;28;20115;-76
2021/06/15 08:12:02;;;;;;;16.70;11.27;;;22.90;61.00;;;;;;4961337;28;20059;-75
2021/06/15 08:14:28;;;;;;;14.75;9.77;;;23.00;60.60;;;;;;4960821;28;20028;-76
2021/06/15 08:16:54;;;;;;;18.42;11.85;;;23.20;61.10;;;;;;4961204;28;20082;-76
2021/06/15 08:19:20;;;;;;;17.88;11.52;;;23.30;60.30;;;;;;4960949;28;20031;-75
2021/06/15 08:21:45;;;;;;;16.15;10.77;;;23.60;60.80;;;;;;4956221;28;20035;-75
2021/06/15 08:24:14;;;;;;;18.08;11.35;;;24.00;61.10;;;;;;4960365;28;20027;-75
2021/06/15 08:26:42;;;;;;;17.20;11.80;;;24.50;60.40;;;;;;4959878;28;20483;-74
2021/06/15 08:29:08;;;;;;;16.50;11.27;;;24.80;59.70;;;;;;4947491;28;20046;-75
2021/06/15 08:31:33;;;;;;;14.40;11.43;;;25.10;59.30;;;;;;4960108;28;20059;-75
2021/06/15 08:33:59;;;;;;;15.65;10.98;;;25.20;58.70;;;;;;4960331;28;20037;-75
2021/06/15 08:36:25;;;;;;;14.55;10.02;;;25.30;58.10;;;;;;4960847;28;20396;-76
2021/06/15 08:38:51;;;;;;;13.82;9.60;;;25.40;58.00;;;;;;4947467;28;20023;-75
2021/06/15 08:41:21;;;;;;;14.82;9.50;;;25.50;57.50;;;;;;4960320;29;20083;-75
2021/06/15 08:43:48;;;;;;;13.05;8.75;;;25.90;58.80;;;;;;4960235;28;20023;-75
2021/06/15 08:46:15;;;;;;;13.40;9.32;;;26.50;58.90;;;;;;4960630;28;20023;-75
2021/06/15 08:48:41;;;;;;;11.73;8.23;;;27.30;58.40;;;;;;4960217;28;20038;-75
2021/06/15 08:51:07;;;;;;;15.07;9.52;;;28.00;58.70;;;;;;4960235;28;20027;-75
2021/06/15 08:53:34;;;;;;;11.02;7.78;;;28.70;57.70;;;;;;4960240;28;20027;-75
2021/06/15 08:56:10;;;;;;;13.75;8.73;;;29.40;55.80;;;;;;4960270;28;20417;-76
2021/06/15 08:58:45;;;;;;;13.35;8.25;;;30.00;56.50;;;;;;4955499;28;20501;-75
2021/06/15 09:01:13;;;;;;;12.98;8.82;;;30.70;55.70;;;;;;4960117;28;20339;-76
2021/06/15 09:03:39;;;;;;;13.65;7.85;;;31.20;54.80;;;;;;4956426;28;20032;-71
2021/06/15 09:06:05;;;;;;;9.77;7.57;;;31.80;54.40;;;;;;4958020;29;20019;-73
2021/06/15 09:08:31;;;;;;;14.00;8.88;;;32.20;52.70;;;;;;4945641;28;20034;-73
2021/06/15 09:11:04;;;;;;;15.10;10.13;;;32.70;51.70;;;;;;4960010;28;20054;-73
2021/06/15 09:13:34;;;;;;;14.10;10.50;;;33.10;51.40;;;;;;4947112;29;20420;-71
2021/06/15 09:16:16;;;;;;;15.00;10.50;;;33.40;51.60;;;;;;4960091;28;20032;-71
2021/06/15 09:18:42;;;;;;;12.98;9.60;;;33.90;50.60;;;;;;4956166;28;20114;-71
2021/06/15 09:21:08;;;;;;;15.70;10.80;;;34.20;49.00;;;;;;4956525;28;20074;-71
2021/06/15 09:23:35;;;;;;;14.15;12.27;;;34.50;49.30;;;;;;4949374;28;20382;-71
2021/06/15 09:26:02;;;;;;;14.25;12.32;;;34.80;48.20;;;;;;4959529;28;20430;-71
2021/06/15 09:28:29;;;;;;;15.27;12.15;;;35.10;48.50;;;;;;4959446;28;20438;-71
2021/06/15 09:31:04;;;;;;;17.63;11.90;;;35.30;47.80;;;;;;4959500;28;20556;-71
2021/06/15 09:33:44;;;;;;;15.18;11.98;;;35.60;47.40;;;;;;4958383;28;20066;-71
2021/06/15 09:36:13;;;;;;;13.07;10.90;;;35.90;47.90;;;;;;4947238;29;20058;-71
2021/06/15 09:38:52;;;;;;;16.33;11.52;;;36.20;47.00;;;;;;4959223;28;20112;-71
2021/06/15 09:41:45;;;;;;;17.25;10.20;;;36.50;45.30;;;;;;4959467;28;20061;-71
2021/06/15 09:44:29;;;;;;;12.10;9.20;;;36.80;44.90;;;;;;4946728;29;20015;-73
2021/06/15 09:47:00;;;;;;;14.23;8.82;;;36.90;45.30;;;;;;4959316;28;20045;-70
2021/06/15 09:49:38;;;;;;;15.75;13.50;;;37.20;45.20;;;;;;4958198;28;20430;-71
2021/06/15 09:52:27;;;;;;;10.88;7.40;;;37.50;44.80;;;;;;4955911;28;20038;-70
2021/06/15 09:55:03;;;;;;;14.15;7.97;;;37.80;45.20;;;;;;4951156;28;20019;-71
2021/06/15 09:57:45;;;;;;;9.98;6.13;;;38.20;42.90;;;;;;4956958;28;20027;-72
2021/06/15 10:00:16;;;;;;;10.75;6.20;;;38.40;42.10;;;;;;4957464;29;20023;-74
2021/06/15 10:02:56;;;;;;;9.15;5.80;;;38.60;41.80;;;;;;4959411;28;20070;-70
2021/06/15 10:05:35;;;;;;;9.88;6.05;;;38.80;42.90;;;;;;4951909;28;20020;-75
2021/06/15 10:08:04;;;;;;;12.85;6.30;;;39.10;42.30;;;;;;4947365;29;20442;-71
2021/06/15 10:10:33;;;;;;;10.23;5.93;;;39.40;41.40;;;;;;4957437;28;20035;-72
2021/06/15 10:13:00;;;;;;;10.93;7.60;;;39.60;41.70;;;;;;4957445;29;20059;-74
2021/06/15 10:15:29;;;;;;;10.98;7.43;;;39.70;41.60;;;;;;4959069;28;20019;-74
2021/06/15 10:17:57;;;;;;;10.75;6.65;;;39.50;40.70;;;;;;4949785;29;20055;-71
2021/06/15 10:20:30;;;;;;;9.32;6.10;;;39.50;38.90;;;;;;4959097;28;20019;-71
2021/06/15 10:22:57;;;;;;;10.77;5.93;;;39.10;40.10;;;;;;4956875;29;20042;-72
2021/06/15 10:25:26;;;;;;;8.35;5.78;;;38.80;40.00;;;;;;4958979;28;20031;-70
2021/06/15 10:27:56;;;;;;;8.88;5.97;;;38.70;41.00;;;;;;4958166;28;20031;-70
2021/06/15 10:30:48;;;;;;;10.20;5.57;;;38.90;41.40;;;;;;4958902;28;20038;-70
2021/06/15 10:33:16;;;;;;;7.93;5.97;;;39.30;42.00;;;;;;4944193;29;20142;-71
2021/06/15 10:35:47;;;;;;;9.57;5.20;;;39.80;39.80;;;;;;4957641;28;20035;-72
2021/06/15 10:38:17;;;;;;;8.23;5.30;;;40.20;40.30;;;;;;4957778;28;20038;-69
2021/06/15 10:40:50;;;;;;;8.80;5.78;;;40.50;39.90;;;;;;4958103;28;20054;-70
2021/06/15 10:43:26;;;;;;;9.15;5.40;;;40.80;40.10;;;;;;4956682;29;20122;-70
2021/06/15 10:46:04;;;;;;;8.73;5.00;;;41.10;39.00;;;;;;4956937;28;20435;-70
2021/06/15 10:48:34;;;;;;;10.38;5.28;;;41.40;38.80;;;;;;4957718;28;20035;-70
2021/06/15 10:51:02;;;;;;;8.88;5.30;;;41.50;38.20;;;;;;4960071;29;20016;-69
2021/06/15 10:53:41;;;;;;;9.48;5.38;;;41.60;36.70;;;;;;4946390;29;20036;-70
2021/06/15 10:56:13;;;;;;;8.18;4.97;;;41.60;39.10;;;;;;4950560;29;20051;-69
2021/06/15 10:58:39;;;;;;;6.50;3.75;;;41.60;39.10;;;;;;4958867;28;20051;-70
2021/06/15 11:01:24;;;;;;;7.75;3.67;;;41.70;36.90;;;;;;4959782;29;20051;-71
2021/06/15 11:04:02;;;;;;;6.22;3.80;;;41.60;36.00;;;;;;4960982;28;20023;-72
2021/06/15 11:06:27;;;;;;;6.28;3.60;;;41.50;38.20;;;;;;4950514;29;20023;-72
2021/06/15 11:09:06;;;;;;;7.65;3.65;;;41.60;36.90;;;;;;4962016;29;20107;-71
2021/06/15 11:11:33;;;;;;;8.27;4.72;;;41.80;38.20;;;;;;4952459;29;20487;-71
2021/06/15 11:14:22;;;;;;;8.43;4.90;;;41.80;37.80;;;;;;4958599;29;20023;-71
2021/06/15 11:16:55;;;;;;;10.98;4.53;;;41.90;38.00;;;;;;4962419;28;20078;-71
2021/06/15 11:19:21;;;;;;;5.35;3.38;;;41.80;37.90;;;;;;4950103;29;20090;-71
2021/06/15 11:22:00;;;;;;;5.57;3.08;;;41.80;36.50;;;;;;4961900;29;20027;-71
2021/06/15 11:24:45;;;;;;;7.60;3.97;;;41.60;34.30;;;;;;4962122;29;20038;-71
2021/06/15 11:27:23;;;;;;;6.78;3.35;;;41.50;35.30;;;;;;4961748;28;20079;-71
2021/06/15 11:29:53;;;;;;;9.38;5.18;;;41.50;37.00;;;;;;4961498;28;20050;-71
2021/06/15 11:32:22;;;;;;;5.60;3.60;;;41.50;37.60;;;;;;4962026;28;20023;-71
2021/06/15 11:34:54;;;;;;;6.50;3.72;;;41.60;36.20;;;;;;4960683;28;20023;-71
2021/06/15 11:37:37;;;;;;;8.65;3.63;;;41.50;36.80;;;;;;4961695;28;20502;-71
2021/06/15 11:40:20;;;;;;;8.82;3.72;;;41.40;37.10;;;;;;4961389;28;20028;-71
2021/06/15 11:43:17;;;;;;;7.03;3.30;;;41.30;37.20;;;;;;4961519;28;20039;-71
2021/06/15 11:45:46;;;;;;;8.18;3.50;;;41.10;36.60;;;;;;4957146;28;20035;-72
2021/06/15 11:48:18;;;;;;;5.93;3.60;;;40.80;36.50;;;;;;4961454;28;20051;-71
2021/06/15 11:50:47;;;;;;;6.28;3.30;;;40.50;36.70;;;;;;4961738;28;20038;-71
2021/06/15 11:53:19;;;;;;;6.30;3.40;;;40.20;36.70;;;;;;4961459;28;20027;-71
2021/06/15 11:56:02;;;;;;;7.00;3.25;;;39.90;36.00;;;;;;4961422;28;20031;-71
2021/06/15 11:58:34;;;;;;;7.25;3.42;;;39.60;36.50;;;;;;4951988;28;20050;-71
2021/06/15 12:01:06;;;;;;;7.28;3.58;;;39.20;36.80;;;;;;4956187;28;20123;-71
2021/06/15 12:03:37;;;;;;;6.68;3.40;;;38.80;36.20;;;;;;4951064;29;20028;-71
2021/06/15 12:06:04;;;;;;;6.18;3.22;;;38.40;37.30;;;;;;4960993;28;20023;-71
2021/06/15 12:08:32;;;;;;;6.13;3.50;;;37.90;37.70;;;;;;4961178;28;20050;-72
2021/06/15 12:11:00;;;;;;;7.78;3.83;;;37.50;38.10;;;;;;4960961;28;20116;-71
2021/06/15 12:13:33;;;;;;;8.35;3.35;;;37.10;38.20;;;;;;4961035;28;20042;-71
2021/06/15 12:16:04;;;;;;;5.50;3.00;;;36.70;39.60;;;;;;4961022;28;20015;-71
2021/06/15 12:18:34;;;;;;;;;;;36.30;39.60;;;;;;4961461;28;20462;-71
2021/06/15 12:21:02;;;;;;;5.38;2.95;;;36.00;39.20;;;;;;4945541;29;19906;-71
2021/06/15 12:23:36;;;;;;;7.88;3.30;;;35.60;39.50;;;;;;4960959;28;20027;-71
2021/06/15 12:26:16;;;;;;;9.73;3.70;;;35.30;40.00;;;;;;4953341;28;20100;-71
2021/06/15 12:28:45;;;;;;;7.15;3.63;;;35.00;39.80;;;;;;4956500;29;20035;-71
2021/06/15 12:31:20;;;;;;;7.78;3.88;;;34.60;39.90;;;;;;4960905;28;20027;-71
2021/06/15 12:33:48;;;;;;;7.03;3.70;;;34.40;40.50;;;;;;4959633;28;20027;-71
2021/06/15 12:36:17;;;;;;;7.88;4.20;;;34.10;41.30;;;;;;4954412;29;20027;-72
2021/06/15 12:38:45;;;;;;;6.47;3.53;;;34.00;41.20;;;;;;4959721;28;20032;-71
2021/06/15 12:41:14;;;;;;;6.53;3.60;;;33.80;40.60;;;;;;4960374;28;20099;-71
2021/06/15 12:43:41;;;;;;;6.88;3.45;;;33.60;40.50;;;;;;4960141;28;20031;-71
2021/06/15 12:46:25;;;;;;;6.13;3.55;;;33.30;40.70;;;;;;4959326;29;20027;-71
2021/06/15 12:49:02;;;;;;;6.68;3.47;;;33.10;40.80;;;;;;4955497;28;20031;-71
2021/06/15 12:51:31;;;;;;;4.95;3.45;;;32.90;41.10;;;;;;4967168;28;20067;-72
2021/06/15 12:54:02;;;;;;;6.45;2.95;;;32.80;41.20;;;;;;4953767;28;20043;-71